Aviation

Port-au-Prince

FTHA31 MTPP 221200
TAF MTPP 221259Z 2212/2312 10004KT 8000 FEW020
BECMG 2214/2218 09012KT
BECMG 2219/2223 27014KT FEW024CB SCT030
PROB30 TEMPO 2300/2304 4500 SHRA SCT022CB SCT040
BECMG 2308/2312 VRB02KT 9000 FEW020=


Cap-Haïtien

FTHA31 MTCH 221200
TAF MTCH 221311Z 2212/2312 VRB02KT 9999 FEW028CB
BECMG 2214/2218 04010KT
PROB30 TEMPO 2222/2302 4500 SHRA SCT022CB BKN040
BECMG 2306/2310 VRB02KT 9000 FEW020=